createdAt,value
2019-06-26T00:01:16.049Z,13.83
2019-06-26T00:03:44.768Z,13.20
2019-06-26T00:06:13.449Z,14.07
2019-06-26T00:08:41.867Z,13.10
2019-06-26T00:11:10.276Z,15.37
2019-06-26T00:13:38.683Z,14.17
2019-06-26T00:16:07.384Z,15.00
2019-06-26T00:18:36.073Z,14.13
2019-06-26T00:21:04.555Z,14.13
2019-06-26T00:23:32.970Z,14.23
2019-06-26T00:26:01.385Z,15.20
2019-06-26T00:28:29.865Z,13.73
2019-06-26T00:30:58.601Z,15.43
2019-06-26T00:33:27.301Z,14.50
2019-06-26T00:35:55.719Z,16.10
2019-06-26T00:38:24.135Z,14.70
2019-06-26T00:40:52.541Z,14.47
2019-06-26T00:43:21.225Z,14.10
2019-06-26T00:45:49.644Z,14.23
2019-06-26T00:48:18.408Z,13.73
2019-06-26T00:50:47.093Z,14.30
2019-06-26T00:53:15.777Z,14.40
2019-06-26T00:55:44.181Z,14.43
2019-06-26T00:58:12.670Z,14.90
2019-06-26T01:00:47.378Z,13.90
2019-06-26T01:03:15.795Z,13.60
2019-06-26T01:05:44.563Z,14.70
2019-06-26T01:08:12.994Z,14.03
2019-06-26T01:10:41.457Z,13.40
2019-06-26T01:13:09.945Z,14.50
2019-06-26T01:15:38.354Z,14.80
2019-06-26T01:18:06.775Z,13.93
2019-06-26T01:20:35.482Z,14.10
2019-06-26T01:23:03.957Z,14.60
2019-06-26T01:25:32.643Z,14.50
2019-06-26T01:28:01.060Z,14.47
2019-06-26T01:30:29.476Z,14.80
2019-06-26T01:32:57.897Z,14.50
2019-06-26T01:35:26.299Z,15.07
2019-06-26T01:37:55.062Z,14.93
2019-06-26T01:40:23.481Z,15.00
2019-06-26T01:42:51.899Z,15.30
2019-06-26T01:45:20.615Z,16.87
2019-06-26T01:47:49.043Z,16.80
2019-06-26T01:50:17.893Z,15.77
2019-06-26T01:52:46.322Z,16.07
2019-06-26T01:55:15.281Z,16.90
2019-06-26T01:57:43.972Z,15.27
2019-06-26T02:00:13.121Z,15.33
2019-06-26T02:02:42.069Z,16.40
2019-06-26T02:05:10.464Z,15.97
2019-06-26T02:07:38.961Z,16.70
2019-06-26T02:10:08.454Z,16.70
2019-06-26T02:12:37.143Z,16.20
2019-06-26T02:15:07.555Z,16.47
2019-06-26T02:17:36.237Z,16.37
2019-06-26T02:20:07.024Z,16.00
2019-06-26T02:22:35.441Z,17.10
2019-06-26T02:25:04.588Z,17.80
2019-06-26T02:27:33.346Z,17.97
2019-06-26T02:30:02.048Z,17.90
2019-06-26T02:32:30.467Z,18.30
2019-06-26T02:34:58.874Z,18.03
2019-06-26T02:37:27.292Z,17.60
2019-06-26T02:39:55.703Z,17.73
2019-06-26T02:42:24.106Z,17.07
2019-06-26T02:44:54.583Z,18.07
2019-06-26T02:47:23.482Z,17.40
2019-06-26T02:49:52.182Z,17.87
2019-06-26T02:52:20.600Z,19.20
2019-06-26T02:54:49.018Z,17.80
2019-06-26T02:57:17.426Z,18.73
2019-06-26T02:59:46.214Z,18.47
2019-06-26T03:02:14.625Z,18.57
2019-06-26T03:04:43.037Z,21.83
2019-06-26T03:07:11.771Z,18.80
2019-06-26T03:09:40.201Z,20.27
2019-06-26T03:12:08.950Z,21.73
2019-06-26T03:14:37.365Z,21.20
2019-06-26T03:17:05.846Z,20.80
2019-06-26T03:19:37.032Z,21.60
2019-06-26T03:22:05.867Z,23.10
2019-06-26T03:24:34.277Z,23.83
2019-06-26T03:27:02.682Z,21.83
2019-06-26T03:29:31.454Z,21.60
2019-06-26T03:31:59.890Z,23.43
2019-06-26T03:34:28.348Z,24.00
2019-06-26T03:36:57.079Z,24.70
2019-06-26T03:39:25.507Z,24.10
2019-06-26T03:41:53.910Z,29.23
2019-06-26T03:44:22.368Z,34.97
2019-06-26T03:46:50.834Z,36.63
2019-06-26T03:49:19.619Z,36.57
2019-06-26T03:51:48.386Z,37.73
2019-06-26T03:54:16.806Z,42.43
2019-06-26T03:56:45.219Z,44.67
2019-06-26T03:59:13.951Z,43.13
2019-06-26T04:01:42.353Z,43.70
2019-06-26T04:04:11.117Z,44.33
2019-06-26T04:06:39.525Z,44.10
2019-06-26T04:09:08.216Z,43.53
2019-06-26T04:11:36.613Z,49.00
2019-06-26T04:14:05.297Z,51.53
2019-06-26T04:16:33.719Z,51.97
2019-06-26T04:19:02.439Z,53.87
2019-06-26T04:21:30.853Z,57.30
2019-06-26T04:23:59.612Z,58.40
2019-06-26T04:26:28.009Z,58.90
2019-06-26T04:28:56.433Z,59.83
2019-06-26T04:31:24.833Z,58.83
2019-06-26T04:33:53.253Z,58.70
2019-06-26T04:36:21.932Z,62.00
2019-06-26T04:38:50.622Z,59.33
2019-06-26T04:41:19.327Z,56.93
2019-06-26T04:43:47.737Z,62.50
2019-06-26T04:46:16.132Z,59.20
2019-06-26T04:48:44.559Z,59.10
2019-06-26T04:51:12.953Z,57.90
2019-06-26T04:53:41.637Z,63.47
2019-06-26T04:56:10.037Z,61.37
2019-06-26T04:58:38.452Z,63.83
2019-06-26T05:01:06.857Z,60.97
2019-06-26T05:03:35.266Z,64.70
2019-06-26T05:06:04.152Z,62.73
2019-06-26T05:08:32.853Z,63.57
2019-06-26T05:11:01.541Z,61.60
2019-06-26T05:13:29.957Z,64.03
2019-06-26T05:16:13.718Z,63.20
2019-06-26T05:18:28.499Z,63.43
2019-06-26T05:20:56.918Z,62.30
2019-06-26T05:23:25.321Z,63.70
2019-06-26T05:25:53.734Z,62.40
2019-06-26T05:28:22.472Z,62.33
2019-06-26T05:30:50.884Z,60.60
2019-06-26T05:33:19.295Z,59.97
2019-06-26T05:35:47.704Z,60.30
2019-06-26T05:38:16.414Z,63.03
2019-06-26T05:40:44.825Z,64.93
2019-06-26T05:43:13.494Z,67.67
2019-06-26T05:45:41.913Z,69.27
2019-06-26T05:48:10.320Z,65.87
2019-06-26T05:50:38.741Z,61.13
2019-06-26T05:53:07.150Z,61.93
2019-06-26T05:55:35.568Z,61.77
2019-06-26T05:58:06.083Z,65.77
2019-06-26T06:00:34.503Z,66.43
2019-06-26T06:03:03.205Z,65.67
2019-06-26T06:05:31.997Z,66.70
2019-06-26T06:08:00.400Z,65.07
2019-06-26T06:10:28.813Z,63.60
2019-06-26T06:12:57.554Z,68.47
2019-06-26T06:15:25.969Z,65.40
2019-06-26T06:17:54.628Z,63.03
2019-06-26T06:20:29.141Z,66.63
2019-06-26T06:22:57.550Z,62.57
2019-06-26T06:25:26.293Z,63.27
2019-06-26T06:27:54.768Z,63.47
2019-06-26T06:30:23.261Z,53.87
2019-06-26T06:32:51.977Z,55.03
2019-06-26T06:35:20.397Z,59.43
2019-06-26T06:37:49.057Z,60.83
2019-06-26T06:40:17.945Z,60.20
2019-06-26T06:42:46.348Z,64.33
2019-06-26T06:45:15.225Z,61.30
2019-06-26T06:47:43.921Z,61.90
2019-06-26T06:50:12.466Z,61.13
2019-06-26T06:52:40.916Z,56.80
2019-06-26T06:55:09.602Z,61.10
2019-06-26T06:57:38.265Z,60.53
2019-06-26T07:00:07.938Z,58.17
2019-06-26T07:02:36.324Z,58.97
2019-06-26T07:05:09.950Z,54.30
2019-06-26T07:07:38.359Z,54.43
2019-06-26T07:10:07.745Z,58.67
2019-06-26T07:12:36.241Z,52.27
2019-06-26T07:15:08.930Z,59.00
2019-06-26T07:17:37.426Z,57.83
2019-06-26T07:20:06.538Z,58.03
2019-06-26T07:22:34.936Z,57.23
2019-06-26T07:25:03.426Z,57.83
2019-06-26T07:27:31.816Z,57.77
2019-06-26T07:30:00.234Z,57.20
2019-06-26T07:32:28.922Z,53.17
2019-06-26T07:34:57.339Z,56.70
2019-06-26T07:37:25.757Z,55.10
2019-06-26T07:39:58.811Z,53.13
2019-06-26T07:42:24.577Z,52.17
2019-06-26T07:44:53.290Z,56.70
2019-06-26T07:47:23.431Z,52.00
2019-06-26T07:49:51.829Z,60.07
2019-06-26T07:52:20.234Z,54.67
2019-06-26T07:54:48.667Z,54.13
2019-06-26T07:57:17.062Z,55.27
2019-06-26T07:59:45.524Z,53.30
2019-06-26T08:02:13.958Z,48.07
2019-06-26T08:04:42.382Z,52.30
2019-06-26T08:07:10.792Z,55.70
2019-06-26T08:09:39.222Z,53.70
2019-06-26T08:12:07.685Z,60.73
2019-06-26T08:14:36.089Z,55.00
2019-06-26T08:17:04.584Z,59.27
2019-06-26T08:19:33.049Z,50.30
2019-06-26T08:22:01.460Z,53.47
2019-06-26T08:24:30.283Z,50.57
2019-06-26T08:26:58.702Z,52.80
2019-06-26T08:29:27.353Z,57.10
2019-06-26T08:31:55.830Z,53.80
2019-06-26T08:34:24.228Z,56.30
2019-06-26T08:36:52.907Z,52.03
2019-06-26T08:39:21.600Z,54.73
2019-06-26T08:41:50.020Z,56.00
2019-06-26T08:44:18.787Z,53.23
2019-06-26T08:46:47.485Z,52.80
2019-06-26T08:49:25.525Z,45.33
2019-06-26T08:51:46.378Z,52.47
2019-06-26T08:54:14.768Z,52.43
2019-06-26T08:56:43.263Z,51.20
2019-06-26T08:59:11.668Z,53.57
2019-06-26T09:01:40.113Z,54.40
2019-06-26T09:04:08.514Z,59.37
2019-06-26T09:06:36.939Z,48.63
2019-06-26T09:09:07.271Z,52.70
2019-06-26T09:11:36.306Z,45.50
2019-06-26T09:14:04.845Z,53.30
2019-06-26T09:16:33.579Z,50.93
2019-06-26T09:19:02.308Z,59.80
2019-06-26T09:21:31.301Z,48.07
2019-06-26T09:23:59.969Z,46.60
2019-06-26T09:26:28.375Z,49.00
2019-06-26T09:28:56.778Z,40.37
2019-06-26T09:31:25.196Z,44.10
2019-06-26T09:33:53.601Z,49.53
2019-06-26T09:36:22.012Z,44.60
2019-06-26T09:38:50.413Z,51.13
2019-06-26T09:41:18.831Z,47.80
2019-06-26T09:43:47.221Z,37.80
2019-06-26T09:46:15.644Z,48.50
2019-06-26T09:48:52.552Z,43.67
2019-06-26T09:51:14.254Z,39.10
2019-06-26T09:53:47.561Z,46.00
2019-06-26T09:56:13.137Z,40.60
2019-06-26T09:58:41.551Z,43.73
2019-06-26T10:01:09.969Z,46.13
2019-06-26T10:03:38.454Z,40.90
2019-06-26T10:06:06.866Z,42.50
2019-06-26T10:08:35.671Z,38.17
2019-06-26T10:11:04.541Z,41.80
2019-06-26T10:13:33.400Z,35.70
2019-06-26T10:16:01.938Z,42.80
2019-06-26T10:18:30.353Z,42.00
2019-06-26T10:20:58.761Z,46.93
2019-06-26T10:23:27.229Z,44.60
2019-06-26T10:25:55.706Z,46.80
2019-06-26T10:28:24.634Z,40.47
2019-06-26T10:30:53.150Z,43.10
2019-06-26T10:33:21.837Z,45.33
2019-06-26T10:35:50.514Z,39.70
2019-06-26T10:38:19.001Z,39.77
2019-06-26T10:40:47.425Z,40.13
2019-06-26T10:43:15.831Z,39.90
2019-06-26T10:45:44.250Z,41.70
2019-06-26T10:48:12.648Z,44.60
2019-06-26T10:50:49.433Z,44.73
2019-06-26T10:53:11.455Z,44.37
2019-06-26T10:55:39.903Z,40.90
2019-06-26T10:58:08.623Z,38.33
2019-06-26T11:00:37.623Z,44.50
2019-06-26T11:03:06.034Z,42.47
2019-06-26T11:05:34.447Z,38.73
2019-06-26T11:08:03.174Z,36.43
2019-06-26T11:10:31.865Z,35.83
2019-06-26T11:13:00.290Z,32.43
2019-06-26T11:15:28.688Z,41.33
2019-06-26T11:17:57.182Z,38.53
2019-06-26T11:20:26.226Z,38.70
2019-06-26T11:22:54.905Z,44.20
2019-06-26T11:25:23.305Z,39.10
2019-06-26T11:27:51.978Z,41.77
2019-06-26T11:30:21.720Z,41.10
2019-06-26T11:32:50.270Z,40.90
2019-06-26T11:35:19.171Z,36.97
2019-06-26T11:37:47.753Z,27.60
2019-06-26T11:40:16.782Z,32.23
2019-06-26T11:42:45.175Z,41.30
2019-06-26T11:45:13.913Z,39.57
2019-06-26T11:47:45.579Z,36.23
2019-06-26T11:50:13.601Z,38.20
2019-06-26T11:52:42.020Z,31.00
2019-06-26T11:55:11.190Z,35.93
2019-06-26T11:57:39.621Z,37.00
2019-06-26T12:00:10.728Z,34.17
2019-06-26T12:02:39.465Z,30.90
2019-06-26T12:05:08.410Z,37.03
2019-06-26T12:07:37.165Z,35.53
2019-06-26T12:10:07.940Z,35.10
2019-06-26T12:12:36.506Z,34.03
2019-06-26T12:15:06.775Z,31.10
2019-06-26T12:17:35.316Z,25.20
2019-06-26T12:20:17.744Z,26.53
2019-06-26T12:22:35.669Z,27.20
2019-06-26T12:25:05.013Z,23.50
2019-06-26T12:27:33.505Z,22.30
2019-06-26T12:30:01.926Z,20.77
2019-06-26T12:32:30.447Z,22.23
2019-06-26T12:34:58.905Z,22.13
2019-06-26T12:37:37.083Z,23.83
2019-06-26T12:39:57.465Z,22.33
2019-06-26T12:42:25.937Z,21.60
2019-06-26T12:44:54.343Z,21.13
2019-06-26T12:47:22.759Z,19.55
2019-06-26T12:49:51.417Z,20.57
2019-06-26T12:52:19.834Z,24.50
2019-06-26T12:54:48.236Z,19.93
2019-06-26T12:57:16.648Z,21.10
2019-06-26T12:59:56.464Z,22.47
2019-06-26T13:02:15.482Z,17.03
2019-06-26T13:04:45.012Z,16.67
2019-06-26T13:07:14.078Z,20.70
2019-06-26T13:09:42.577Z,15.33
2019-06-26T13:12:10.993Z,14.10
2019-06-26T13:14:39.393Z,14.23
2019-06-26T13:17:07.810Z,17.20
2019-06-26T13:19:36.234Z,21.03
2019-06-26T13:22:04.624Z,18.00
2019-06-26T13:24:33.129Z,17.37
2019-06-26T13:27:01.602Z,16.40
2019-06-26T13:29:30.007Z,16.30
2019-06-26T13:31:58.496Z,14.30
2019-06-26T13:34:26.921Z,16.80
2019-06-26T13:36:55.409Z,14.47
2019-06-26T13:39:23.821Z,13.80
2019-06-26T13:41:52.236Z,15.30
2019-06-26T13:44:20.961Z,15.17
2019-06-26T13:46:49.373Z,12.93
2019-06-26T13:49:17.797Z,14.60
2019-06-26T13:51:46.226Z,13.20
2019-06-26T13:54:14.998Z,12.23
2019-06-26T13:56:43.753Z,12.00
2019-06-26T13:59:12.181Z,10.60
2019-06-26T14:01:40.585Z,9.97
2019-06-26T14:04:08.993Z,10.77
2019-06-26T14:06:37.397Z,9.63
2019-06-26T14:09:07.153Z,10.00
2019-06-26T14:11:35.685Z,10.50
2019-06-26T14:14:04.169Z,9.40
2019-06-26T14:16:32.905Z,10.00
2019-06-26T14:19:01.390Z,9.93
2019-06-26T14:21:30.396Z,9.20
2019-06-26T14:23:59.152Z,8.93
2019-06-26T14:26:27.621Z,10.03
2019-06-26T14:28:56.040Z,9.77
2019-06-26T14:31:24.721Z,9.47
2019-06-26T14:33:53.142Z,10.20
2019-06-26T14:36:23.355Z,10.07
2019-06-26T14:38:51.689Z,10.23
2019-06-26T14:41:20.401Z,10.17
2019-06-26T14:43:49.093Z,10.20
2019-06-26T14:46:17.499Z,10.23
2019-06-26T14:48:45.910Z,10.00
2019-06-26T14:51:15.085Z,9.97
2019-06-26T14:53:43.573Z,9.80
2019-06-26T14:56:11.985Z,9.70
2019-06-26T14:58:40.397Z,9.93
2019-06-26T15:01:08.808Z,10.60
2019-06-26T15:03:37.225Z,10.40
2019-06-26T15:06:16.069Z,10.70
2019-06-26T15:08:35.774Z,10.30
2019-06-26T15:11:04.583Z,10.33
2019-06-26T15:13:33.033Z,9.90
2019-06-26T15:16:01.473Z,11.40
2019-06-26T15:18:29.895Z,9.93
2019-06-26T15:20:58.301Z,10.30
2019-06-26T15:23:27.001Z,11.17
2019-06-26T15:25:55.689Z,11.13
2019-06-26T15:28:24.378Z,11.10
2019-06-26T15:30:52.790Z,11.90
2019-06-26T15:33:21.192Z,11.57
2019-06-26T15:35:49.613Z,10.60
2019-06-26T15:38:18.328Z,10.47
2019-06-26T15:40:46.724Z,10.53
2019-06-26T15:43:15.148Z,11.00
2019-06-26T15:45:43.556Z,11.83
2019-06-26T15:48:12.262Z,11.95
2019-06-26T15:50:40.682Z,12.23
2019-06-26T15:53:09.101Z,12.53
2019-06-26T15:55:37.587Z,12.70
2019-06-26T15:58:06.008Z,11.73
2019-06-26T16:00:34.773Z,11.77
2019-06-26T16:03:03.899Z,12.30
2019-06-26T16:05:32.289Z,13.23
2019-06-26T16:08:00.711Z,13.63
2019-06-26T16:10:29.112Z,13.43
2019-06-26T16:12:57.530Z,13.57
2019-06-26T16:15:25.944Z,14.33
2019-06-26T16:17:56.330Z,12.63
2019-06-26T16:20:25.022Z,12.47
2019-06-26T16:22:53.478Z,13.33
2019-06-26T16:25:21.953Z,13.83
2019-06-26T16:28:04.317Z,12.60
2019-06-26T16:30:21.249Z,11.60
2019-06-26T16:32:50.002Z,12.73
2019-06-26T16:35:18.796Z,12.30
2019-06-26T16:37:47.211Z,12.40
2019-06-26T16:40:16.198Z,11.10
2019-06-26T16:42:44.716Z,13.10
2019-06-26T16:45:13.865Z,12.23
2019-06-26T16:47:42.286Z,12.90
2019-06-26T16:50:10.763Z,11.63
2019-06-26T16:52:49.116Z,12.17
2019-06-26T16:55:09.473Z,11.20
2019-06-26T16:57:38.252Z,11.33
2019-06-26T17:00:10.530Z,10.57
2019-06-26T17:02:39.112Z,9.80
2019-06-26T17:05:08.154Z,10.60
2019-06-26T17:07:36.883Z,10.37
2019-06-26T17:10:06.949Z,11.07
2019-06-26T17:12:35.347Z,9.73
2019-06-26T17:15:05.718Z,9.47
2019-06-26T17:17:34.116Z,9.47
2019-06-26T17:20:02.528Z,9.53
2019-06-26T17:22:30.952Z,9.30
2019-06-26T17:24:59.379Z,9.67
2019-06-26T17:27:28.130Z,8.33
2019-06-26T17:29:56.554Z,9.80
2019-06-26T17:32:24.967Z,9.87
2019-06-26T17:34:53.365Z,8.70
2019-06-26T17:37:21.772Z,9.47
2019-06-26T17:39:50.454Z,8.83
2019-06-26T17:42:18.864Z,9.03
2019-06-26T17:44:47.286Z,8.50
2019-06-26T17:47:15.696Z,9.10
2019-06-26T17:49:44.394Z,8.07
2019-06-26T17:52:12.793Z,8.33
2019-06-26T17:54:41.217Z,7.53
2019-06-26T17:57:09.953Z,7.50
2019-06-26T17:59:38.369Z,7.60
2019-06-26T18:02:06.798Z,7.70
2019-06-26T18:04:35.227Z,7.27
2019-06-26T18:07:03.699Z,6.70
2019-06-26T18:09:32.138Z,6.50
2019-06-26T18:12:00.902Z,5.70
2019-06-26T18:14:29.653Z,5.90
2019-06-26T18:16:58.067Z,5.50
2019-06-26T18:19:26.554Z,6.30
2019-06-26T18:21:54.945Z,6.20
2019-06-26T18:24:23.693Z,6.07
2019-06-26T18:26:52.385Z,5.93
2019-06-26T18:29:21.084Z,5.93
2019-06-26T18:31:49.484Z,6.37
2019-06-26T18:34:17.893Z,5.70
2019-06-26T18:36:46.637Z,4.90
2019-06-26T18:39:15.088Z,5.03
2019-06-26T18:41:43.513Z,4.00
2019-06-26T18:44:11.938Z,4.03
2019-06-26T18:46:40.698Z,4.60
2019-06-26T18:49:09.170Z,4.17
2019-06-26T18:51:37.625Z,3.80
2019-06-26T18:54:06.570Z,4.00
2019-06-26T18:56:35.349Z,3.60
2019-06-26T18:59:04.055Z,3.80
2019-06-26T19:01:32.464Z,3.80
2019-06-26T19:04:01.215Z,3.20
2019-06-26T19:06:29.648Z,3.00
2019-06-26T19:08:58.119Z,2.90
2019-06-26T19:11:26.515Z,3.10
2019-06-26T19:13:55.265Z,2.93
2019-06-26T19:16:23.690Z,2.97
2019-06-26T19:18:52.101Z,3.07
2019-06-26T19:21:20.598Z,2.53
2019-06-26T19:23:49.278Z,2.60
2019-06-26T19:26:17.720Z,2.43
2019-06-26T19:28:46.195Z,2.23
2019-06-26T19:31:14.609Z,2.10
2019-06-26T19:33:45.634Z,2.23
2019-06-26T19:36:13.482Z,2.40
2019-06-26T19:38:41.873Z,2.37
2019-06-26T19:41:10.341Z,2.27
2019-06-26T19:43:39.112Z,2.10
2019-06-26T19:46:07.547Z,2.20
2019-06-26T19:48:36.021Z,2.50
2019-06-26T19:51:04.498Z,2.27
2019-06-26T19:53:33.249Z,2.60
2019-06-26T19:56:01.661Z,2.53
2019-06-26T19:58:30.058Z,2.20
2019-06-26T20:00:58.533Z,2.60
2019-06-26T20:03:27.345Z,3.23
2019-06-26T20:05:55.985Z,2.40
2019-06-26T20:08:24.378Z,2.20
2019-06-26T20:10:52.792Z,2.83
2019-06-26T20:13:21.196Z,2.70
2019-06-26T20:15:49.913Z,3.27
2019-06-26T20:18:18.609Z,2.70
2019-06-26T20:20:47.142Z,3.07
2019-06-26T20:23:15.630Z,3.00
2019-06-26T20:25:44.035Z,3.00
2019-06-26T20:28:12.483Z,3.00
2019-06-26T20:30:41.250Z,3.00
2019-06-26T20:33:09.674Z,2.80
2019-06-26T20:35:38.958Z,3.67
2019-06-26T20:38:07.713Z,3.10
2019-06-26T20:40:36.125Z,3.23
2019-06-26T20:43:04.524Z,3.63
2019-06-26T20:45:32.928Z,3.13
2019-06-26T20:48:01.339Z,3.27
2019-06-26T20:50:29.753Z,2.50
2019-06-26T20:52:58.163Z,3.03
2019-06-26T20:55:26.574Z,3.03
2019-06-26T20:57:55.295Z,3.00
2019-06-26T21:00:23.705Z,3.17
2019-06-26T21:02:54.247Z,2.93
2019-06-26T21:05:22.248Z,2.67
2019-06-26T21:07:50.651Z,2.87
2019-06-26T21:10:19.360Z,3.00
2019-06-26T21:12:47.779Z,2.57
2019-06-26T21:15:16.185Z,2.70
2019-06-26T21:17:44.906Z,2.60
2019-06-26T21:20:13.590Z,2.70
2019-06-26T21:22:41.993Z,3.03
2019-06-26T21:25:18.442Z,3.20
2019-06-26T21:27:40.605Z,3.50
2019-06-26T21:30:10.038Z,3.40
2019-06-26T21:32:38.498Z,3.43
2019-06-26T21:35:07.017Z,2.70
2019-06-26T21:37:35.749Z,3.00
2019-06-26T21:40:04.954Z,2.97
2019-06-26T21:42:33.450Z,3.37
2019-06-26T21:45:02.146Z,3.20
2019-06-26T21:47:30.818Z,3.77
2019-06-26T21:49:59.238Z,3.90
2019-06-26T21:52:27.911Z,3.90
2019-06-26T21:54:56.681Z,3.53
2019-06-26T21:57:25.105Z,3.67
2019-06-26T21:59:53.592Z,3.27
2019-06-26T22:02:22.338Z,3.80
2019-06-26T22:04:51.065Z,3.60
2019-06-26T22:07:19.601Z,4.00
2019-06-26T22:09:48.018Z,4.43
2019-06-26T22:12:16.502Z,3.87
2019-06-26T22:14:44.927Z,4.10
2019-06-26T22:17:13.377Z,4.77
2019-06-26T22:19:41.793Z,4.40
2019-06-26T22:22:10.193Z,4.20
2019-06-26T22:24:38.919Z,4.47
2019-06-26T22:27:07.333Z,4.03
2019-06-26T22:29:35.714Z,4.63
2019-06-26T22:32:04.486Z,5.60
2019-06-26T22:34:32.891Z,6.33
2019-06-26T22:37:01.317Z,6.47
2019-06-26T22:39:29.727Z,6.57
2019-06-26T22:41:58.163Z,6.30
2019-06-26T22:44:26.889Z,6.83
2019-06-26T22:46:55.578Z,7.03
2019-06-26T22:49:23.996Z,7.63
2019-06-26T22:51:52.423Z,7.50
2019-06-26T22:54:21.175Z,7.00
2019-06-26T22:56:49.944Z,7.33
2019-06-26T22:59:18.359Z,7.33
2019-06-26T23:01:46.788Z,6.87
2019-06-26T23:04:15.178Z,6.77
2019-06-26T23:06:43.880Z,6.60
2019-06-26T23:09:12.384Z,6.37
2019-06-26T23:11:41.155Z,6.53
2019-06-26T23:14:09.555Z,6.40
2019-06-26T23:16:37.976Z,5.20
2019-06-26T23:19:06.382Z,5.07
2019-06-26T23:21:35.090Z,4.67
2019-06-26T23:24:03.632Z,5.00
2019-06-26T23:26:32.041Z,5.07
2019-06-26T23:29:00.475Z,4.50
2019-06-26T23:31:29.240Z,4.60
2019-06-26T23:33:57.658Z,4.90
2019-06-26T23:36:26.402Z,4.50
2019-06-26T23:38:55.105Z,4.60
2019-06-26T23:41:23.797Z,4.80
2019-06-26T23:43:52.484Z,4.40
2019-06-26T23:46:21.172Z,5.03
2019-06-26T23:48:49.595Z,4.80
2019-06-26T23:51:18.344Z,4.60
2019-06-26T23:53:47.034Z,4.60
2019-06-26T23:56:15.433Z,4.70
2019-06-26T23:58:43.852Z,4.87
